Time;durP1;ratioP1;P1;durP2;ratioP2;P2;SDS_P1;SDS_P2;PMS_P1;PMS_P2;Temp;Humidity;BMP_temperature;BMP_pressure;BME280_temperature;BME280_humidity;BME280_pressure;Samples;Min_cycle;Max_cycle;Signal;HPM_P1;HPM_P2
2024/03/23 00:04:03;;;;;;;466.70;431.70;;;;;;;10.06;100.00;99733.70;215858;1284;139360;-87
2024/03/23 00:09:04;;;;;;;482.50;446.50;;;;;;;10.06;100.00;99739.75;214909;1285;140794;-88
2024/03/23 00:14:04;;;;;;;455.90;421.80;;;;;;;10.05;100.00;99733.07;215303;1282;139721;-88
2024/03/23 00:19:06;;;;;;;445.70;413.40;;;;;;;10.04;100.00;99727.80;214769;1285;140426;-88
2024/03/23 00:24:07;;;;;;;462.70;426.20;;;;;;;10.05;100.00;99724.20;215339;1285;113792;-91
2024/03/23 00:29:07;;;;;;;450.20;416.40;;;;;;;10.04;100.00;99716.95;214815;1283;140524;-90
2024/03/23 00:34:08;;;;;;;468.20;434.10;;;;;;;10.01;100.00;99709.70;215252;1288;139172;-89
2024/03/23 00:39:08;;;;;;;474.30;439.00;;;;;;;9.98;100.00;99698.48;214839;1284;140633;-91
2024/03/23 00:44:09;;;;;;;378.00;349.40;;;;;;;9.95;100.00;99692.58;215342;1283;139728;-91
2024/03/23 00:49:10;;;;;;;420.10;388.30;;;;;;;9.94;100.00;99687.63;214857;1283;141415;-90
2024/03/23 00:54:10;;;;;;;427.00;395.10;;;;;;;9.95;100.00;99684.17;215475;1285;99525;-90
2024/03/23 00:59:11;;;;;;;467.30;432.90;;;;;;;9.95;100.00;99681.89;214923;1285;140971;-90
2024/03/23 01:04:12;;;;;;;354.00;329.30;;;;;;;9.94;100.00;99678.42;215415;1284;139227;-90
2024/03/23 01:09:13;;;;;;;425.10;394.40;;;;;;;9.94;100.00;99666.81;215850;1283;139643;-90
2024/03/23 01:14:13;;;;;;;403.30;372.60;;;;;;;9.93;100.00;99653.61;215477;1284;139294;-91
2024/03/23 01:19:14;;;;;;;431.10;398.20;;;;;;;9.93;100.00;99646.55;214748;1285;140533;-91
2024/03/23 01:24:15;;;;;;;441.20;409.00;;;;;;;9.93;100.00;99647.80;215641;1285;99678;-90
2024/03/23 01:29:15;;;;;;;501.30;463.30;;;;;;;9.94;100.00;99644.98;215136;1283;140572;-92
2024/03/23 01:34:16;;;;;;;455.40;422.70;;;;;;;9.94;100.00;99628.64;215601;1284;139208;-91
2024/03/23 01:39:16;;;;;;;449.70;416.00;;;;;;;9.93;100.00;99630.37;215003;1285;140369;-91
2024/03/23 01:44:17;;;;;;;457.20;423.10;;;;;;;9.92;100.00;99628.88;215279;1285;140070;-90
2024/03/23 01:49:18;;;;;;;430.20;398.40;;;;;;;9.93;100.00;99625.04;215489;1286;140408;-89
2024/03/23 01:54:19;;;;;;;466.60;430.90;;;;;;;9.94;100.00;99616.95;216450;1284;99296;-88
2024/03/23 01:59:19;;;;;;;416.10;384.60;;;;;;;9.92;100.00;99609.01;215635;1285;140946;-90
2024/03/23 02:04:20;;;;;;;451.90;418.50;;;;;;;9.93;100.00;99602.58;215367;1283;139237;-89
2024/03/23 02:09:20;;;;;;;488.30;451.30;;;;;;;9.94;100.00;99592.52;216060;1285;139267;-88
2024/03/23 02:14:21;;;;;;;424.40;391.40;;;;;;;9.96;100.00;99585.37;215409;1285;139188;-90
2024/03/23 02:19:21;;;;;;;487.40;450.30;;;;;;;9.95;100.00;99575.48;214800;1285;140721;-89
2024/03/23 02:24:22;;;;;;;470.40;435.00;;;;;;;9.96;100.00;99575.71;215409;1283;99308;-89
2024/03/23 02:29:23;;;;;;;474.90;439.10;;;;;;;9.97;100.00;99576.59;214885;1288;140207;-89
2024/03/23 02:34:23;;;;;;;473.00;435.70;;;;;;;9.97;100.00;99571.09;215376;1284;138974;-88
2024/03/23 02:39:23;;;;;;;507.00;467.60;;;;;;;9.99;100.00;99561.66;214739;1285;140147;-89
2024/03/23 02:44:24;;;;;;;520.20;479.60;;;;;;;9.99;100.00;99564.80;215471;1285;139384;-88
2024/03/23 02:49:25;;;;;;;519.60;479.30;;;;;;;10.00;100.00;99552.88;215703;1284;140606;-89
2024/03/23 02:54:26;;;;;;;528.00;487.30;;;;;;;9.99;100.00;99549.65;216554;1284;106085;-90
2024/03/23 02:59:26;;;;;;;525.20;485.50;;;;;;;9.99;100.00;99554.98;218857;1285;141226;-88
2024/03/23 03:04:26;;;;;;;563.50;518.40;;;;;;;9.99;100.00;99541.95;216516;1285;139396;-86
2024/03/23 03:09:27;;;;;;;537.10;496.60;;;;;;;10.00;100.00;99533.39;215893;1285;140495;-88
2024/03/23 03:14:28;;;;;;;531.20;491.60;;;;;;;10.01;100.00;99525.06;216986;1285;139523;-89
2024/03/23 03:19:28;;;;;;;507.10;469.10;;;;;;;10.02;100.00;99526.08;215016;1284;140817;-89
2024/03/23 03:24:28;;;;;;;574.00;529.80;;;;;;;10.01;100.00;99517.77;215577;1285;140648;-89
2024/03/23 03:29:35;;;;;;;587.90;543.10;;;;;;;10.02;100.00;99507.46;215009;1285;140175;-90
2024/03/23 03:34:35;;;;;;;;;;;;;;;10.02;100.00;99498.66;215600;1285;139241;-89
2024/03/23 03:39:36;;;;;;;385.80;358.30;;;;;;;10.00;100.00;99486.89;214962;1285;125497;-89
2024/03/23 03:44:37;;;;;;;483.30;446.60;;;;;;;10.00;100.00;99483.05;215532;1285;139332;-89
2024/03/23 03:49:37;;;;;;;452.20;419.40;;;;;;;9.99;100.00;99478.34;214865;1284;140961;-90
2024/03/23 03:54:38;;;;;;;513.80;475.50;;;;;;;9.83;100.00;99490.36;215392;1285;139218;-93
2024/03/23 03:59:38;;;;;;;415.40;387.20;;;;;;;9.64;100.00;99498.39;215078;1285;140181;-89
2024/03/23 04:04:39;;;;;;;401.40;374.50;;;;;;;9.51;100.00;99504.20;215433;1284;139004;-92
2024/03/23 04:09:40;;;;;;;342.50;319.50;;;;;;;9.31;100.00;99503.39;214744;1284;141152;-91
2024/03/23 04:14:40;;;;;;;291.60;272.50;;;;;;;9.18;100.00;99509.33;215683;1284;139225;-90
2024/03/23 04:19:41;;;;;;;248.10;232.40;;;;;;;9.00;100.00;99509.61;215017;1285;140383;-90
2024/03/23 04:24:42;;;;;;;197.60;184.40;;;;;;;8.79;100.00;99513.70;215494;1285;139438;-92
2024/03/23 04:29:46;;;;;;;126.70;118.60;;;;;;;8.67;100.00;99521.73;214914;1285;142197;-93
2024/03/23 04:34:48;;;;;;;107.80;101.10;;;;;;;8.63;100.00;99515.05;215429;1285;139068;-92
2024/03/23 04:39:48;;;;;;;97.00;90.30;;;;;;;8.56;100.00;99506.48;214902;1285;140376;-89
2024/03/23 04:44:49;;;;;;;62.80;58.50;;;;;;;8.41;100.00;99490.20;215394;1285;139048;-88
2024/03/23 04:49:49;;;;;;;43.20;39.50;;;;;;;8.31;100.00;99481.15;214860;1288;138947;-88
2024/03/23 04:54:50;;;;;;;51.90;47.50;;;;;;;8.23;100.00;99460.66;215471;1285;139426;-88
2024/03/23 04:59:50;;;;;;;47.30;43.00;;;;;;;8.07;100.00;99428.14;215110;1284;140960;-91
2024/03/23 05:04:50;;;;;;;41.30;37.80;;;;;;;7.98;100.00;99424.25;215486;1285;140211;-90
2024/03/23 05:09:51;;;;;;;22.80;20.60;;;;;;;7.93;100.00;99426.81;215143;1288;139956;-88
2024/03/23 05:14:52;;;;;;;22.00;15.90;;;;;;;7.89;100.00;99437.67;215415;1284;138894;-88
2024/03/23 05:19:53;;;;;;;21.80;15.00;;;;;;;7.85;100.00;99435.36;215557;1285;139845;-91
2024/03/23 05:24:53;;;;;;;32.30;11.20;;;;;;;7.73;100.00;99428.27;215424;1288;138989;-90
2024/03/23 05:29:54;;;;;;;22.70;12.90;;;;;;;7.65;100.00;99423.74;214829;1285;139895;-88
2024/03/23 05:34:56;;;;;;;35.70;13.90;;;;;;;7.65;100.00;99425.00;215436;1285;139159;-91
2024/03/23 05:39:57;;;;;;;22.30;11.40;;;;;;;7.63;100.00;99419.13;214712;1285;139254;-90
2024/03/23 05:44:57;;;;;;;26.30;12.00;;;;;;;7.65;100.00;99421.09;215335;1285;138848;-89
2024/03/23 05:49:59;;;;;;;27.90;9.30;;;;;;;7.69;100.00;99419.30;214746;1288;140429;-91
2024/03/23 05:54:59;;;;;;;21.00;8.20;;;;;;;7.68;100.00;99413.84;215281;1285;138673;-91
2024/03/23 06:00:00;;;;;;;32.30;16.30;;;;;;;7.65;100.00;99423.45;214892;1285;140789;-90
2024/03/23 06:05:01;;;;;;;25.80;9.50;;;;;;;7.65;100.00;99418.34;215352;1285;139936;-91
2024/03/23 06:10:02;;;;;;;17.40;7.10;;;;;;;7.65;100.00;99415.30;214762;1287;140061;-90
2024/03/23 06:15:03;;;;;;;28.60;12.20;;;;;;;7.67;100.00;99410.77;215322;1288;138766;-90
2024/03/23 06:20:08;;;;;;;32.10;14.30;;;;;;;7.69;100.00;99412.83;215303;1284;140668;-90
2024/03/23 06:25:09;;;;;;;18.70;10.40;;;;;;;7.73;100.00;99406.19;215196;1285;139969;-91
2024/03/23 06:30:10;;;;;;;29.70;14.40;;;;;;;7.77;100.00;99403.01;214825;1286;140879;-90
2024/03/23 06:35:10;;;;;;;25.10;13.30;;;;;;;7.78;100.00;99409.98;215870;1285;139045;-91
2024/03/23 06:40:11;;;;;;;24.50;16.40;;;;;;;7.83;100.00;99403.66;215066;1285;140319;-91
2024/03/23 06:45:11;;;;;;;26.50;15.20;;;;;;;7.85;100.00;99395.23;216090;1285;139081;-90
2024/03/23 06:50:12;;;;;;;34.40;16.20;;;;;;;7.86;100.00;99386.79;215432;1286;140413;-90
2024/03/23 06:55:12;;;;;;;24.30;14.30;;;;;;;7.87;100.00;99360.80;215994;1288;139472;-90
2024/03/23 07:00:15;;;;;;;29.50;15.10;;;;;;;7.78;100.00;99350.12;214873;1288;139847;-91
2024/03/23 07:05:15;;;;;;;34.20;17.70;;;;;;;7.77;100.00;99355.98;215191;1285;139599;-91
2024/03/23 07:10:16;;;;;;;29.40;14.60;;;;;;;7.85;100.00;99356.09;214753;1282;139964;-90
2024/03/23 07:15:19;;;;;;;77.30;37.40;;;;;;;7.86;100.00;99334.67;215478;1288;139051;-91
2024/03/23 07:20:20;;;;;;;38.10;17.90;;;;;;;7.80;100.00;99318.66;214767;1284;140021;-91
2024/03/23 07:25:22;;;;;;;31.70;20.30;;;;;;;7.83;100.00;99310.00;215847;1285;138862;-90
2024/03/23 07:30:23;;;;;;;28.20;19.40;;;;;;;7.84;100.00;99310.78;214960;1285;140537;-90
2024/03/23 07:35:23;;;;;;;30.60;21.50;;;;;;;7.88;100.00;99319.95;215402;1288;140317;-91
2024/03/23 07:40:24;;;;;;;26.90;18.80;;;;;;;7.95;100.00;99327.89;214805;1285;140132;-90
2024/03/23 07:45:24;;;;;;;37.50;31.40;;;;;;;8.06;100.00;99339.27;215253;1285;138845;-91
2024/03/23 07:50:25;;;;;;;30.30;19.80;;;;;;;8.15;100.00;99337.90;215036;1286;141813;-89
2024/03/23 07:55:25;;;;;;;27.70;23.00;;;;;;;8.11;100.00;99298.50;215265;1285;139144;-89
2024/03/23 08:00:26;;;;;;;39.80;34.60;;;;;;;8.06;100.00;99300.69;214757;1285;140096;-91
2024/03/23 08:05:26;;;;;;;49.60;37.90;;;;;;;8.11;100.00;99297.64;215365;1285;138617;-91
2024/03/23 08:10:27;;;;;;;31.50;16.40;;;;;;;8.10;100.00;99275.73;214694;1285;140714;-89
2024/03/23 08:15:30;;;;;;;38.70;33.00;;;;;;;8.08;100.00;99245.42;215221;1288;139780;-91
2024/03/23 08:20:31;;;;;;;39.60;31.70;;;;;;;8.11;100.00;99218.10;214589;1285;139850;-90
2024/03/23 08:25:32;;;;;;;35.10;31.80;;;;;;;8.18;100.00;99204.98;216305;1285;139019;-89
2024/03/23 08:30:34;;;;;;;59.50;54.40;;;;;;;8.29;100.00;99215.95;214767;1283;140285;-89
2024/03/23 08:35:35;;;;;;;64.00;58.20;;;;;;;8.45;100.00;99238.67;215274;1285;100902;-89
2024/03/23 08:40:35;;;;;;;74.20;68.50;;;;;;;8.57;100.00;99238.05;214905;1284;141054;-89
2024/03/23 08:45:36;;;;;;;80.70;74.20;;;;;;;8.65;100.00;99239.39;215446;1285;140363;-89
2024/03/23 08:50:36;;;;;;;82.40;75.70;;;;;;;8.67;100.00;99227.48;214597;1282;139641;-88
2024/03/23 08:55:36;;;;;;;119.30;111.00;;;;;;;8.62;100.00;99218.94;215194;1285;139151;-89
2024/03/23 09:00:37;;;;;;;142.00;132.20;;;;;;;8.64;100.00;99198.80;214528;1288;140996;-87
2024/03/23 09:05:41;;;;;;;125.90;117.20;;;;;;;8.64;100.00;99183.85;215289;1285;99324;-92
2024/03/23 09:10:42;;;;;;;122.90;114.10;;;;;;;8.62;100.00;99173.10;214500;1285;139928;-90
2024/03/23 09:15:50;;;;;;;108.70;101.30;;;;;;;8.55;100.00;99179.69;215168;1286;139574;-90
2024/03/23 09:20:53;;;;;;;107.50;100.30;;;;;;;8.51;100.00;99169.36;214724;1285;139689;-91
2024/03/23 09:25:53;;;;;;;111.50;103.50;;;;;;;8.46;100.00;99167.48;215286;1285;139317;-91
2024/03/23 09:30:54;;;;;;;77.10;71.80;;;;;;;8.40;100.00;99164.19;215187;1286;141471;-90
2024/03/23 09:35:56;;;;;;;52.60;48.50;;;;;;;8.31;100.00;99159.50;215397;1285;99298;-91
2024/03/23 09:40:57;;;;;;;39.40;35.40;;;;;;;8.17;100.00;99151.64;215044;1285;139493;-90
2024/03/23 09:45:58;;;;;;;50.30;46.50;;;;;;;8.01;100.00;99138.55;215285;1286;139053;-91
2024/03/23 09:50:59;;;;;;;46.30;42.90;;;;;;;7.90;100.00;99131.73;214595;1288;139831;-87
2024/03/23 09:55:59;;;;;;;37.10;31.50;;;;;;;7.83;100.00;99133.23;214766;1288;448601;-90
2024/03/23 10:01:00;;;;;;;36.60;31.20;;;;;;;7.77;100.00;99130.87;214415;1288;140061;-90
2024/03/23 10:06:02;;;;;;;27.20;14.30;;;;;;;7.74;100.00;99117.10;215442;1282;99514;-87
2024/03/23 10:11:15;;;;;;;26.30;17.00;;;;;;;7.70;100.00;99116.07;214876;1285;140149;-90
2024/03/23 10:16:23;;;;;;;20.10;8.70;;;;;;;7.70;100.00;99109.89;215567;1282;138731;-89
2024/03/23 10:21:23;;;;;;;23.20;13.90;;;;;;;7.71;100.00;99105.20;214885;1283;139438;-88
2024/03/23 10:26:29;;;;;;;22.50;14.00;;;;;;;7.73;100.00;99103.48;215503;1282;139432;-87
2024/03/23 10:31:31;;;;;;;17.20;10.10;;;;;;;7.73;100.00;99102.39;215017;1286;140014;-88
2024/03/23 10:36:34;;;;;;;20.50;14.80;;;;;;;7.79;100.00;99105.20;215608;1282;139066;-88
2024/03/23 10:41:35;;;;;;;18.90;14.40;;;;;;;7.84;100.00;99115.06;215672;1283;140629;-87
2024/03/23 10:46:37;;;;;;;21.90;18.40;;;;;;;7.87;100.00;99096.14;216271;1288;139696;-87
2024/03/23 10:51:38;;;;;;;23.70;18.10;;;;;;;7.87;100.00;99079.08;215823;1282;140202;-87
2024/03/23 10:56:39;;;;;;;22.30;17.50;;;;;;;7.89;100.00;99068.20;216713;1285;138885;-88
2024/03/23 11:01:59;;;;;;;17.30;13.60;;;;;;;7.96;100.00;99066.40;216357;1282;139928;-88
2024/03/23 11:07:01;;;;;;;24.20;19.20;;;;;;;8.00;100.00;99062.64;216366;1285;139010;-87
2024/03/23 11:12:32;;;;;;;22.70;20.40;;;;;;;8.00;100.00;99057.94;215386;1288;139763;-88
2024/03/23 11:17:33;;;;;;;19.40;14.40;;;;;;;7.92;100.00;99038.69;215752;1285;99377;-87
2024/03/23 11:22:37;;;;;;;25.10;18.30;;;;;;;7.88;100.00;99008.95;215054;1286;139605;-88
2024/03/23 11:27:38;;;;;;;18.20;9.70;;;;;;;7.85;100.00;99001.13;215464;1282;139043;-87
2024/03/23 11:32:39;;;;;;;24.50;19.50;;;;;;;7.80;100.00;98974.39;215623;1282;140080;-87
2024/03/23 11:37:39;;;;;;;28.30;23.50;;;;;;;7.77;100.00;98960.22;215889;1288;140130;-85
2024/03/23 11:42:40;;;;;;;22.20;16.20;;;;;;;7.75;100.00;98956.40;214962;1287;140180;-86
2024/03/23 11:47:40;;;;;;;22.00;16.10;;;;;;;7.68;100.00;98946.45;215504;1284;100636;-89
2024/03/23 11:52:41;;;;;;;15.70;7.70;;;;;;;7.65;100.00;98938.80;214886;1285;139464;-89
2024/03/23 11:57:42;;;;;;;18.60;10.80;;;;;;;7.56;100.00;98926.54;215338;1287;138675;-89
2024/03/23 12:02:42;;;;;;;16.00;12.70;;;;;;;7.55;100.00;98919.02;215143;1283;139646;-87
2024/03/23 12:07:43;;;;;;;13.90;8.90;;;;;;;7.55;100.00;98911.98;215441;1286;139318;-87
2024/03/23 12:12:43;;;;;;;16.10;10.30;;;;;;;7.51;100.00;98903.55;214971;1286;140690;-88
2024/03/23 12:17:44;;;;;;;15.30;9.60;;;;;;;7.49;100.00;98909.11;215721;1282;99505;-87
2024/03/23 12:22:46;;;;;;;12.50;7.60;;;;;;;7.47;100.00;98904.56;215297;1288;139609;-87
2024/03/23 12:27:46;;;;;;;12.10;9.30;;;;;;;7.41;100.00;98890.41;215949;1282;138660;-88
2024/03/23 12:32:47;;;;;;;12.10;8.30;;;;;;;7.32;100.00;98884.48;215425;1285;139799;-88
2024/03/23 12:37:47;;;;;;;12.00;8.40;;;;;;;7.29;100.00;98885.59;216729;1281;139451;-88
2024/03/23 12:42:48;;;;;;;11.40;5.10;;;;;;;7.26;100.00;98885.81;215013;1283;140149;-88
2024/03/23 12:47:49;;;;;;;19.00;5.30;;;;;;;7.15;100.00;98885.50;215822;1288;99296;-88
2024/03/23 12:52:50;;;;;;;11.40;4.30;;;;;;;7.03;100.00;98879.19;215157;1283;140043;-87
2024/03/23 12:57:50;;;;;;;8.10;3.70;;;;;;;6.92;100.00;98893.23;215729;1285;138740;-87
2024/03/23 13:02:51;;;;;;;9.60;3.50;;;;;;;6.89;100.00;98940.66;215433;1284;141239;-86
2024/03/23 13:07:51;;;;;;;11.00;4.10;;;;;;;6.82;100.00;98982.83;215405;1286;140009;-86
2024/03/23 13:12:52;;;;;;;10.90;3.60;;;;;;;6.81;100.00;99016.58;214917;1283;140239;-86
2024/03/23 13:17:53;;;;;;;12.30;4.20;;;;;;;6.78;100.00;99041.55;215674;1283;99646;-85
2024/03/23 13:22:54;;;;;;;10.70;4.50;;;;;;;6.68;100.00;99054.17;215084;1285;139679;-83
2024/03/23 13:27:55;;;;;;;11.20;3.80;;;;;;;6.64;100.00;99060.09;215751;1286;138867;-84
2024/03/23 13:32:55;;;;;;;6.80;2.20;;;;;;;6.51;100.00;99066.66;215225;1283;139818;-84
2024/03/23 13:37:56;;;;;;;5.70;2.40;;;;;;;6.33;100.00;99079.83;216599;1286;138611;-83
2024/03/23 13:42:56;;;;;;;4.40;2.10;;;;;;;6.16;100.00;99101.17;215617;1283;139509;-84
2024/03/23 13:47:57;;;;;;;9.70;3.00;;;;;;;5.99;100.00;99122.29;216163;1282;99280;-83
2024/03/23 13:52:57;;;;;;;8.50;2.30;;;;;;;5.93;100.00;99136.81;215345;1282;139301;-84
2024/03/23 13:57:57;;;;;;;5.20;2.10;;;;;;;5.88;100.00;99157.36;215898;1283;139177;-83
2024/03/23 14:02:58;;;;;;;7.00;2.10;;;;;;;5.85;100.00;99168.72;215689;1282;139196;-83
2024/03/23 14:07:58;;;;;;;3.90;2.00;;;;;;;5.67;100.00;99156.48;216106;1286;138692;-84
2024/03/23 14:13:02;;;;;;;4.00;1.50;;;;;;;5.56;100.00;99150.38;215537;1282;139439;-83
2024/03/23 14:18:03;;;;;;;3.60;1.60;;;;;;;5.48;100.00;99160.35;215662;1282;99250;-83
2024/03/23 14:23:04;;;;;;;10.80;2.40;;;;;;;5.42;100.00;99160.60;215100;1283;139708;-84
2024/03/23 14:28:04;;;;;;;6.30;1.70;;;;;;;5.41;100.00;99175.09;215721;1284;138530;-84
2024/03/23 14:33:04;;;;;;;5.30;1.70;;;;;;;5.45;100.00;99186.27;215201;1282;140040;-83
2024/03/23 14:38:05;;;;;;;6.50;2.40;;;;;;;5.51;100.00;99207.23;215656;1288;138547;-83
2024/03/23 14:43:05;;;;;;;6.60;2.80;;;;;;;5.58;100.00;99227.11;215693;1282;140028;-83
2024/03/23 14:48:06;;;;;;;6.00;2.40;;;;;;;5.66;100.00;99246.08;215827;1282;99340;-84
2024/03/23 14:53:07;;;;;;;6.60;2.50;;;;;;;5.65;100.00;99265.26;215197;1282;139412;-84
2024/03/23 14:58:08;;;;;;;5.00;2.50;;;;;;;5.64;100.00;99272.17;215787;1284;138450;-84
2024/03/23 15:03:09;;;;;;;9.90;3.70;;;;;;;5.66;100.00;99289.98;215404;1282;139086;-84
2024/03/23 15:08:09;;;;;;;5.40;2.20;;;;;;;5.71;100.00;99319.77;216031;1282;138627;-85
2024/03/23 15:13:10;;;;;;;4.20;2.10;;;;;;;5.69;100.00;99329.02;215252;1283;141299;-84
2024/03/23 15:18:28;;;;;;;5.20;2.20;;;;;;;5.61;100.00;99327.90;216215;1282;99261;-85
2024/03/23 15:23:29;;;;;;;5.10;1.90;;;;;;;5.59;100.00;99325.69;215564;1283;140600;-84
2024/03/23 15:33:49;;;;;;;4.60;1.90;;;;;;;5.59;100.00;99340.20;215719;1282;138725;-85
2024/03/23 15:38:50;;;;;;;5.00;2.10;;;;;;;5.57;100.00;99353.19;215249;1283;139631;-84
2024/03/23 15:43:51;;;;;;;6.00;2.30;;;;;;;5.57;100.00;99363.88;216291;1286;138980;-84
2024/03/23 15:48:54;;;;;;;6.00;2.40;;;;;;;5.53;100.00;99371.14;215346;1282;140098;-83
2024/03/23 15:53:57;;;;;;;4.00;2.20;;;;;;;5.46;100.00;99367.45;215839;1287;99373;-83
2024/03/23 15:59:05;;;;;;;5.80;2.00;;;;;;;5.41;100.00;99376.73;215504;1283;140150;-84
2024/03/23 16:04:05;;;;;;;5.60;2.10;;;;;;;5.38;100.00;99383.23;215764;1282;139208;-84
2024/03/23 16:09:06;;;;;;;6.20;2.40;;;;;;;5.34;100.00;99385.43;214980;1284;141248;-83
2024/03/23 16:14:07;;;;;;;20.60;12.50;;;;;;;5.23;100.00;99395.24;215755;1285;138522;-83
2024/03/23 16:19:08;;;;;;;9.20;4.20;;;;;;;5.17;100.00;99390.54;215596;1282;141502;-84
2024/03/23 16:24:09;;;;;;;12.90;6.60;;;;;;;5.15;100.00;99393.39;216084;1283;99402;-83
2024/03/23 16:29:10;;;;;;;8.70;2.90;;;;;;;5.11;100.00;99387.05;215424;1282;139814;-85
2024/03/23 16:34:11;;;;;;;8.30;2.50;;;;;;;5.06;100.00;99395.98;215959;1286;138666;-85
2024/03/23 16:39:11;;;;;;;9.50;3.90;;;;;;;5.00;100.00;99413.42;215662;1286;140906;-86
2024/03/23 16:44:12;;;;;;;13.50;7.30;;;;;;;4.97;100.00;99413.45;216872;1282;138493;-85
2024/03/23 16:49:13;;;;;;;6.60;3.30;;;;;;;4.99;100.00;99434.50;215224;1282;139619;-84
2024/03/23 16:54:13;;;;;;;7.70;2.30;;;;;;;4.96;100.00;99440.15;216062;1282;98000;-85
2024/03/23 16:59:14;;;;;;;5.80;2.60;;;;;;;4.92;100.00;99442.10;215291;1282;139492;-85
2024/03/23 17:04:14;;;;;;;10.60;4.50;;;;;;;4.91;100.00;99432.81;215876;1282;138335;-85
2024/03/23 17:09:16;;;;;;;79.40;28.70;;;;;;;4.92;100.00;99436.02;215377;1281;139621;-84
2024/03/23 17:14:16;;;;;;;11.80;4.70;;;;;;;4.94;100.00;99442.29;215613;1286;138942;-84
2024/03/23 17:19:17;;;;;;;10.00;4.90;;;;;;;4.93;100.00;99439.48;215115;1282;139914;-85
2024/03/23 17:24:17;;;;;;;9.60;4.50;;;;;;;4.93;100.00;99434.72;215789;1282;99295;-85
2024/03/23 17:29:18;;;;;;;7.20;3.40;;;;;;;4.93;100.00;99444.23;215103;1282;139984;-85
2024/03/23 17:34:18;;;;;;;9.50;3.90;;;;;;;4.92;100.00;99458.77;215953;1282;138393;-84
2024/03/23 17:39:19;;;;;;;10.30;4.50;;;;;;;4.90;100.00;99466.14;215123;1282;140540;-86
2024/03/23 17:44:20;;;;;;;10.10;4.90;;;;;;;4.85;100.00;99490.89;217170;1282;139054;-84
2024/03/23 17:49:21;;;;;;;9.40;5.20;;;;;;;4.81;100.00;99512.92;215459;1282;139569;-85
2024/03/23 17:54:21;;;;;;;39.40;18.20;;;;;;;4.73;100.00;99526.02;216002;1282;99292;-85
2024/03/23 17:59:22;;;;;;;12.50;5.70;;;;;;;4.65;100.00;99521.58;215294;1283;139931;-86
2024/03/23 18:04:22;;;;;;;10.60;5.20;;;;;;;4.59;100.00;99515.98;215616;1282;139126;-85
2024/03/23 18:09:23;;;;;;;12.00;6.20;;;;;;;4.54;100.00;99508.05;215737;1282;139763;-85
2024/03/23 18:14:24;;;;;;;12.70;5.80;;;;;;;4.51;100.00;99486.08;215768;1282;138833;-85
2024/03/23 18:19:24;;;;;;;12.30;5.90;;;;;;;4.49;100.00;99496.17;215471;1282;140439;-84
2024/03/23 18:24:25;;;;;;;12.20;6.70;;;;;;;4.44;100.00;99523.63;216005;1282;99230;-84
2024/03/23 18:29:26;;;;;;;18.00;8.80;;;;;;;4.37;100.00;99591.89;215172;1282;140137;-84
2024/03/23 18:34:26;;;;;;;19.60;10.40;;;;;;;4.33;100.00;99603.61;215704;1282;138605;-85
2024/03/23 18:39:27;;;;;;;11.40;5.80;;;;;;;4.28;100.00;99558.30;215508;1282;139942;-85
2024/03/23 18:44:28;;;;;;;14.60;6.20;;;;;;;4.20;100.00;99551.35;217222;1285;138843;-85
2024/03/23 18:49:28;;;;;;;12.90;6.00;;;;;;;4.12;100.00;99548.63;216353;1283;150249;-85
2024/03/23 18:54:29;;;;;;;13.30;7.00;;;;;;;4.05;100.00;99544.88;217486;1282;99357;-85
2024/03/23 18:59:29;;;;;;;15.30;8.50;;;;;;;4.00;100.00;99554.02;216714;1283;139084;-85
2024/03/23 19:04:30;;;;;;;20.60;9.20;;;;;;;3.95;100.00;99548.39;216628;1284;139440;-84
2024/03/23 19:09:31;;;;;;;34.80;17.70;;;;;;;3.92;100.00;99545.28;215329;1285;140462;-84
2024/03/23 19:14:32;;;;;;;33.30;13.00;;;;;;;3.87;100.00;99550.53;215911;1286;139165;-86
2024/03/23 19:19:32;;;;;;;30.90;12.90;;;;;;;3.78;100.00;99557.29;215264;1282;140057;-86
2024/03/23 19:24:33;;;;;;;23.10;11.70;;;;;;;3.70;100.00;99559.36;216100;1283;100153;-85
2024/03/23 19:29:33;;;;;;;26.60;13.10;;;;;;;3.66;100.00;99552.97;215210;1282;141438;-86
2024/03/23 19:34:34;;;;;;;29.50;13.30;;;;;;;3.60;100.00;99545.22;215762;1283;138721;-85
2024/03/23 19:39:35;;;;;;;25.30;12.50;;;;;;;3.54;100.00;99547.79;215198;1282;140016;-87
2024/03/23 19:44:36;;;;;;;35.00;14.80;;;;;;;3.49;100.00;99541.98;216148;1285;139103;-85
2024/03/23 19:49:37;;;;;;;38.20;17.00;;;;;;;3.44;100.00;99548.46;215944;1284;141220;-86
2024/03/23 19:54:37;;;;;;;37.00;14.40;;;;;;;3.39;100.00;99537.77;215874;1283;98785;-86
2024/03/23 19:59:38;;;;;;;30.40;13.90;;;;;;;3.34;100.00;99536.16;215389;1282;140196;-86
2024/03/23 20:04:38;;;;;;;26.90;12.10;;;;;;;3.27;100.00;99534.83;215802;1283;138789;-87
2024/03/23 20:09:39;;;;;;;33.40;14.70;;;;;;;3.23;100.00;99528.25;215105;1283;141646;-87
2024/03/23 20:14:40;;;;;;;34.20;14.40;;;;;;;3.19;100.00;99517.75;215717;1282;138950;-89
2024/03/23 20:19:40;;;;;;;24.90;12.90;;;;;;;3.15;100.00;99521.77;215350;1282;139787;-88
2024/03/23 20:24:40;;;;;;;24.30;12.30;;;;;;;3.10;100.00;99519.70;215842;1283;139283;-88
2024/03/23 20:29:41;;;;;;;27.00;13.30;;;;;;;3.05;100.00;99507.35;215526;1282;139804;-87
2024/03/23 20:34:41;;;;;;;32.10;13.90;;;;;;;3.00;100.00;99505.62;215676;1282;138847;-87
2024/03/23 20:39:43;;;;;;;29.00;13.60;;;;;;;2.97;100.00;99499.80;215129;1285;139346;-87
2024/03/23 20:44:44;;;;;;;28.70;12.40;;;;;;;2.96;100.00;99493.77;215644;1285;139028;-85
2024/03/23 20:49:44;;;;;;;30.10;11.90;;;;;;;2.96;100.00;99484.91;215670;1281;140315;-86
2024/03/23 20:54:45;;;;;;;27.00;12.50;;;;;;;2.97;100.00;99483.02;215655;1284;139147;-86
2024/03/23 20:59:47;;;;;;;28.30;12.40;;;;;;;2.97;100.00;99480.54;215366;1282;140972;-87
2024/03/23 21:04:48;;;;;;;28.30;11.80;;;;;;;2.98;100.00;99482.97;215884;1281;138942;-86
2024/03/23 21:09:49;;;;;;;37.20;15.30;;;;;;;2.98;100.00;99479.23;215717;1282;140923;-86
2024/03/23 21:14:52;;;;;;;32.40;15.20;;;;;;;2.96;100.00;99481.52;216001;1285;138983;-86
2024/03/23 21:19:54;;;;;;;35.60;16.30;;;;;;;2.97;100.00;99480.91;215400;1282;140058;-85
2024/03/23 21:24:54;;;;;;;32.60;14.60;;;;;;;2.95;100.00;99477.13;215869;1282;138829;-86
2024/03/23 21:29:55;;;;;;;29.50;14.40;;;;;;;2.92;100.00;99474.60;215367;1282;139957;-85
2024/03/23 21:34:56;;;;;;;36.00;17.10;;;;;;;2.92;100.00;99473.02;215745;1282;138900;-85
2024/03/23 21:39:57;;;;;;;35.00;15.50;;;;;;;2.89;100.00;99474.12;215322;1282;141425;-85
2024/03/23 21:44:57;;;;;;;34.90;15.50;;;;;;;2.87;100.00;99472.83;215604;1282;139605;-86
2024/03/23 21:49:58;;;;;;;31.90;14.80;;;;;;;2.85;100.00;99471.13;215863;1282;139867;-86
2024/03/23 21:54:59;;;;;;;37.00;17.00;;;;;;;2.83;100.00;99465.35;215662;1282;453505;-87
2024/03/23 21:59:59;;;;;;;39.90;15.20;;;;;;;2.83;100.00;99458.96;215332;1282;140049;-86
2024/03/23 22:05:00;;;;;;;37.40;15.40;;;;;;;2.81;100.00;99448.67;216161;1282;138815;-86
2024/03/23 22:10:01;;;;;;;32.80;14.80;;;;;;;2.79;100.00;99444.90;215462;1282;139876;-85
2024/03/23 22:15:01;;;;;;;33.70;14.50;;;;;;;2.78;100.00;99440.91;216106;1282;139216;-85
2024/03/23 22:20:02;;;;;;;30.50;13.30;;;;;;;2.77;100.00;99435.38;215344;1282;140154;-86
2024/03/23 22:25:02;;;;;;;31.00;13.20;;;;;;;2.77;100.00;99430.64;215951;1282;138851;-86
2024/03/23 22:30:06;;;;;;;37.10;13.90;;;;;;;2.76;100.00;99423.48;215431;1286;140246;-85
2024/03/23 22:35:06;;;;;;;27.10;12.10;;;;;;;2.75;100.00;99417.79;215664;1283;139251;-86
2024/03/23 22:40:08;;;;;;;31.30;13.70;;;;;;;2.74;100.00;99414.48;215181;1282;140413;-85